Time;durP1;ratioP1;P1;durP2;ratioP2;P2;SDS_P1;SDS_P2;PMS_P1;PMS_P2;Temp;Humidity;BMP_temperature;BMP_pressure;BME280_temperature;BME280_humidity;BME280_pressure;Samples;Min_cycle;Max_cycle;Signal;HPM_P1;HPM_P2
2023/06/20 00:01:02;;;;;;;9.70;9.00;;;21.90;99.90;;;;;;6106946;23;20548;-86
2023/06/20 00:03:29;;;;;;;9.60;8.90;;;21.80;99.90;;;;;;6086832;23;20434;-86
2023/06/20 00:05:56;;;;;;;9.30;8.60;;;21.80;99.90;;;;;;6091932;23;20445;-86
2023/06/20 00:08:24;;;;;;;9.60;8.90;;;21.90;99.90;;;;;;6106155;23;20433;-86
2023/06/20 00:10:51;;;;;;;9.30;8.50;;;21.90;99.90;;;;;;6106113;23;20461;-87
2023/06/20 00:13:19;;;;;;;8.70;8.10;;;21.90;99.90;;;;;;6111986;23;20743;-86
2023/06/20 00:15:46;;;;;;;8.60;8.00;;;21.90;99.90;;;;;;6113127;23;20491;-86
2023/06/20 00:18:13;;;;;;;9.50;8.80;;;21.90;99.90;;;;;;6110486;23;20458;-87
2023/06/20 00:20:40;;;;;;;9.17;8.40;;;21.90;99.90;;;;;;6106389;23;20473;-87
2023/06/20 00:23:08;;;;;;;9.40;8.70;;;21.90;99.90;;;;;;6087944;23;20580;-87
2023/06/20 00:25:36;;;;;;;9.40;8.60;;;22.00;99.90;;;;;;6104282;23;20484;-87
2023/06/20 00:28:04;;;;;;;8.70;8.10;;;22.00;99.90;;;;;;6111661;23;20481;-87
2023/06/20 00:30:31;;;;;;;9.30;8.70;;;22.10;99.90;;;;;;6110864;23;20479;-87
2023/06/20 00:32:59;;;;;;;9.80;8.93;;;22.10;99.90;;;;;;6108056;23;20465;-86
2023/06/20 00:35:26;;;;;;;9.40;8.60;;;22.20;99.90;;;;;;6106955;23;20464;-86
2023/06/20 00:37:53;;;;;;;9.57;8.87;;;22.20;99.90;;;;;;6106861;23;20593;-86
2023/06/20 00:40:21;;;;;;;10.23;9.33;;;22.20;99.90;;;;;;6105835;23;20473;-86
2023/06/20 00:42:49;;;;;;;9.13;8.43;;;22.30;99.90;;;;;;6087057;23;20474;-86
2023/06/20 00:45:29;;;;;;;10.00;9.20;;;22.40;99.90;;;;;;6108335;23;20434;-87
2023/06/20 00:47:58;;;;;;;8.70;8.07;;;22.40;99.90;;;;;;6121431;23;20558;-87
2023/06/20 00:50:28;;;;;;;8.87;6.80;;;22.50;99.90;;;;;;6118303;23;20496;-86
2023/06/20 00:52:59;;;;;;;7.53;6.80;;;22.60;99.90;;;;;;6104954;23;20431;-86
2023/06/20 00:55:28;;;;;;;8.70;7.90;;;22.60;99.90;;;;;;6115630;23;20450;-84
2023/06/20 00:57:58;;;;;;;9.83;9.23;;;21.90;99.90;;;;;;6113517;23;21836;-92
2023/06/20 01:00:26;;;;;;;9.80;9.10;;;21.80;99.90;;;;;;6097944;23;20452;-82
2023/06/20 01:02:57;;;;;;;9.30;8.50;;;21.30;99.90;;;;;;6113263;23;20641;-82
2023/06/20 01:05:27;;;;;;;10.33;9.37;;;20.90;99.90;;;;;;6092248;23;20976;-81
2023/06/20 01:08:04;;;;;;;9.77;8.87;;;20.70;99.90;;;;;;6098592;23;20461;-81
2023/06/20 01:10:43;;;;;;;10.60;9.70;;;20.60;99.90;;;;;;6114664;23;20449;-81
2023/06/20 01:13:21;;;;;;;10.23;9.50;;;20.40;99.90;;;;;;6108861;23;20494;-81
2023/06/20 01:15:55;;;;;;;10.90;10.10;;;20.30;99.90;;;;;;6108450;23;20428;-80
2023/06/20 01:18:31;;;;;;;10.57;9.87;;;20.10;99.90;;;;;;6106929;23;20445;-80
2023/06/20 01:21:07;;;;;;;10.43;9.57;;;20.00;99.90;;;;;;6105910;23;21005;-80
2023/06/20 01:23:40;;;;;;;10.47;9.77;;;19.90;99.90;;;;;;6100609;23;20441;-79
2023/06/20 01:26:12;;;;;;;11.07;10.27;;;19.80;99.90;;;;;;6107527;23;20548;-79
2023/06/20 01:28:44;;;;;;;10.40;9.50;;;19.70;99.90;;;;;;6098270;22;20887;-66
2023/06/20 01:31:13;;;;;;;9.70;8.90;;;19.70;99.90;;;;;;6105172;23;20435;-66
2023/06/20 01:33:49;;;;;;;9.70;9.00;;;19.60;99.90;;;;;;6102556;23;20921;-66
2023/06/20 01:36:19;;;;;;;9.60;8.90;;;19.60;99.90;;;;;;6076971;23;20815;-67
2023/06/20 01:38:51;;;;;;;9.70;8.93;;;19.50;99.90;;;;;;6083458;23;20442;-67
2023/06/20 01:41:22;;;;;;;8.17;7.57;;;19.50;99.90;;;;;;6085870;23;20575;-67
2023/06/20 01:43:50;;;;;;;8.60;7.80;;;19.40;99.90;;;;;;6099978;23;20503;-67
2023/06/20 01:46:19;;;;;;;9.40;8.70;;;19.40;99.90;;;;;;6088969;23;20508;-67
2023/06/20 01:48:48;;;;;;;9.50;8.90;;;19.40;99.90;;;;;;6100936;23;20438;-67
2023/06/20 01:51:16;;;;;;;8.77;8.17;;;19.30;99.90;;;;;;6107619;23;20772;-67
2023/06/20 01:53:45;;;;;;;8.60;8.00;;;19.30;99.90;;;;;;6095438;23;20445;-67
2023/06/20 01:56:14;;;;;;;7.50;6.90;;;19.30;99.90;;;;;;6087014;23;20456;-67
2023/06/20 01:58:42;;;;;;;7.00;6.50;;;19.20;99.90;;;;;;6104544;23;20428;-67
2023/06/20 02:01:11;;;;;;;6.97;6.47;;;19.20;99.90;;;;;;6103182;23;20465;-67
2023/06/20 02:03:41;;;;;;;6.90;6.40;;;19.20;99.90;;;;;;6077942;23;21283;-67
2023/06/20 02:06:11;;;;;;;6.77;6.37;;;19.20;99.90;;;;;;6094296;23;20464;-67
2023/06/20 02:08:40;;;;;;;7.47;6.87;;;19.30;99.90;;;;;;6099264;23;20484;-67
2023/06/20 02:11:08;;;;;;;6.83;6.43;;;19.20;99.90;;;;;;6093903;23;20528;-67
2023/06/20 02:13:37;;;;;;;7.73;7.13;;;19.20;99.90;;;;;;6102959;23;20511;-67
2023/06/20 02:16:08;;;;;;;7.83;7.33;;;19.20;99.90;;;;;;6097092;23;20533;-67
2023/06/20 02:18:35;;;;;;;7.40;6.90;;;19.20;99.90;;;;;;6098227;23;20448;-66
2023/06/20 02:21:08;;;;;;;7.70;7.17;;;19.20;99.90;;;;;;6102549;23;20787;-67
2023/06/20 02:23:37;;;;;;;7.80;7.30;;;19.20;99.90;;;;;;6102870;23;20421;-66
2023/06/20 02:26:08;;;;;;;8.10;7.47;;;19.20;99.90;;;;;;6093476;23;20487;-66
2023/06/20 02:28:40;;;;;;;8.63;7.93;;;19.20;99.90;;;;;;6095261;23;20542;-67
2023/06/20 02:31:09;;;;;;;9.80;9.00;;;19.20;99.90;;;;;;6099987;23;20457;-66
2023/06/20 02:33:37;;;;;;;8.67;8.07;;;19.20;99.90;;;;;;6097603;23;20427;-67
2023/06/20 02:36:05;;;;;;;8.57;7.90;;;19.10;99.90;;;;;;6105135;23;20457;-66
2023/06/20 02:38:33;;;;;;;8.67;8.07;;;19.10;99.90;;;;;;6088326;23;20482;-66
2023/06/20 02:41:00;;;;;;;7.87;7.33;;;19.10;99.90;;;;;;6102956;23;20537;-66
2023/06/20 02:43:28;;;;;;;8.27;7.67;;;19.10;99.90;;;;;;6100072;23;20506;-66
2023/06/20 02:46:05;;;;;;;7.90;7.30;;;19.10;99.90;;;;;;6103633;23;21233;-66
2023/06/20 02:48:40;;;;;;;7.93;7.33;;;19.10;99.90;;;;;;6088398;23;20553;-67
2023/06/20 02:51:16;;;;;;;8.73;8.13;;;19.10;99.90;;;;;;6106347;23;20434;-66
2023/06/20 02:53:52;;;;;;;7.53;7.03;;;19.10;99.90;;;;;;6100270;23;21839;-66
2023/06/20 02:56:19;;;;;;;7.67;7.17;;;19.00;99.90;;;;;;6104662;23;20449;-66
2023/06/20 02:58:52;;;;;;;8.60;8.00;;;19.00;99.90;;;;;;6103185;23;20473;-66
2023/06/20 03:01:24;;;;;;;8.73;8.10;;;18.90;99.90;;;;;;6076558;23;20562;-66
2023/06/20 03:03:55;;;;;;;9.27;8.57;;;18.90;99.90;;;;;;6092553;23;20495;-66
2023/06/20 03:06:27;;;;;;;8.97;8.37;;;18.90;99.90;;;;;;6050868;23;21756;-66
2023/06/20 03:08:56;;;;;;;10.00;9.20;;;18.90;99.90;;;;;;6086647;23;20438;-67
2023/06/20 03:11:23;;;;;;;9.60;8.77;;;18.90;99.90;;;;;;6103620;23;20415;-67
2023/06/20 03:13:51;;;;;;;9.57;8.87;;;18.80;99.90;;;;;;6105763;23;20426;-67
2023/06/20 03:16:19;;;;;;;9.33;8.63;;;18.80;99.90;;;;;;6092575;23;20608;-67
2023/06/20 03:18:47;;;;;;;9.07;8.37;;;18.90;99.90;;;;;;6087904;23;20505;-67
2023/06/20 03:21:14;;;;;;;8.77;8.17;;;18.90;99.90;;;;;;6096895;23;20466;-67
2023/06/20 03:23:41;;;;;;;11.17;10.03;;;18.80;99.90;;;;;;6097226;23;20513;-67
2023/06/20 03:26:08;;;;;;;10.13;9.43;;;18.80;99.90;;;;;;6107415;23;20457;-67
2023/06/20 03:28:35;;;;;;;8.90;8.30;;;18.80;99.90;;;;;;6091835;23;20440;-68
2023/06/20 03:31:02;;;;;;;9.07;8.37;;;18.80;99.90;;;;;;6086285;23;20497;-65
2023/06/20 03:33:31;;;;;;;8.80;8.20;;;18.80;99.90;;;;;;6078669;23;20779;-65
2023/06/20 03:35:59;;;;;;;8.40;7.80;;;18.80;99.90;;;;;;6083651;23;20552;-65
2023/06/20 03:38:27;;;;;;;8.70;8.00;;;18.80;99.90;;;;;;6079905;23;20425;-65
2023/06/20 03:40:54;;;;;;;7.80;7.20;;;18.90;99.90;;;;;;6084295;23;20812;-66
2023/06/20 03:43:21;;;;;;;7.67;7.07;;;18.90;99.90;;;;;;6077547;23;20839;-67
2023/06/20 03:45:48;;;;;;;8.37;7.77;;;19.00;99.90;;;;;;6095241;23;20478;-66
2023/06/20 03:48:15;;;;;;;8.83;8.10;;;19.00;99.90;;;;;;6082432;23;20987;-67
2023/06/20 03:50:43;;;;;;;7.97;7.37;;;19.10;99.90;;;;;;6099324;23;20433;-65
2023/06/20 03:53:11;;;;;;;9.07;8.47;;;19.10;99.90;;;;;;6082654;23;20464;-65
2023/06/20 03:55:37;;;;;;;8.30;7.60;;;19.20;99.90;;;;;;6089492;23;20487;-65
2023/06/20 03:58:04;;;;;;;8.43;7.83;;;19.10;99.90;;;;;;6103197;23;20521;-64
2023/06/20 04:00:32;;;;;;;9.00;8.30;;;19.10;99.90;;;;;;6095600;23;20522;-64
2023/06/20 04:02:59;;;;;;;9.07;8.40;;;19.10;99.90;;;;;;6079467;23;20455;-65
2023/06/20 04:05:27;;;;;;;8.30;7.70;;;19.10;99.90;;;;;;6094334;23;20502;-64
2023/06/20 04:07:56;;;;;;;8.90;8.30;;;19.10;99.90;;;;;;6084890;23;20529;-65
2023/06/20 04:10:23;;;;;;;8.83;8.10;;;19.10;99.90;;;;;;6060138;23;20488;-63
2023/06/20 04:12:50;;;;;;;9.07;8.47;;;19.00;99.90;;;;;;6075264;23;20434;-65
2023/06/20 04:15:18;;;;;;;8.57;7.87;;;19.20;99.90;;;;;;6102451;23;20474;-64
2023/06/20 04:17:45;;;;;;;8.20;7.60;;;19.00;99.90;;;;;;6098727;23;20493;-65
2023/06/20 04:20:13;;;;;;;9.20;8.50;;;19.10;99.90;;;;;;6095697;23;21459;-66
2023/06/20 04:22:42;;;;;;;8.90;8.30;;;19.10;99.90;;;;;;6092973;23;20477;-65
2023/06/20 04:25:10;;;;;;;10.30;9.40;;;19.10;99.90;;;;;;6106538;23;20430;-66
2023/06/20 04:27:37;;;;;;;9.87;9.17;;;19.10;99.90;;;;;;6090230;23;20542;-66
2023/06/20 04:30:06;;;;;;;10.33;9.43;;;19.10;99.90;;;;;;6093933;23;20503;-65
2023/06/20 04:32:33;;;;;;;10.00;8.87;;;19.10;99.90;;;;;;6096122;23;20526;-65
2023/06/20 04:35:00;;;;;;;10.20;9.47;;;19.10;99.90;;;;;;6079576;23;20435;-65
2023/06/20 04:37:29;;;;;;;9.67;9.00;;;19.10;99.90;;;;;;6074340;23;20466;-63
2023/06/20 04:39:57;;;;;;;10.70;9.80;;;19.10;99.90;;;;;;6075133;23;20434;-65
2023/06/20 04:42:25;;;;;;;10.47;9.77;;;19.20;99.90;;;;;;6058259;23;20458;-65
2023/06/20 04:44:52;;;;;;;10.23;9.33;;;19.20;99.90;;;;;;6060539;23;20436;-65
2023/06/20 04:47:19;;;;;;;10.90;10.00;;;19.20;99.90;;;;;;6036655;23;21677;-65
2023/06/20 04:49:46;;;;;;;10.60;9.63;;;19.20;99.90;;;;;;6051795;23;20435;-65
2023/06/20 04:52:13;;;;;;;9.70;9.00;;;19.30;99.90;;;;;;6053815;23;20434;-65
2023/06/20 04:54:42;;;;;;;10.70;9.60;;;19.30;99.90;;;;;;6059428;23;20496;-77
2023/06/20 04:57:09;;;;;;;10.20;9.40;;;19.40;99.90;;;;;;6079988;23;20459;-65
2023/06/20 04:59:39;;;;;;;9.63;8.83;;;19.40;99.90;;;;;;6049165;23;21495;-65
2023/06/20 05:02:06;;;;;;;10.03;9.13;;;19.40;99.90;;;;;;6090599;23;20467;-65
2023/06/20 05:04:33;;;;;;;8.93;8.23;;;19.50;99.90;;;;;;6058387;23;20931;-65
2023/06/20 05:07:02;;;;;;;8.67;7.83;;;19.50;99.90;;;;;;6050037;23;21160;-65
2023/06/20 05:09:29;;;;;;;7.70;7.10;;;19.60;99.90;;;;;;6065532;23;20450;-65
2023/06/20 05:11:56;;;;;;;8.17;7.37;;;19.70;99.90;;;;;;6072173;23;20514;-65
2023/06/20 05:14:23;;;;;;;7.63;7.03;;;19.80;99.90;;;;;;6088248;23;20440;-65
2023/06/20 05:16:51;;;;;;;7.70;7.10;;;19.90;99.90;;;;;;6075207;23;20500;-64
2023/06/20 05:19:18;;;;;;;7.27;6.70;;;20.00;99.90;;;;;;6074107;23;20461;-65
2023/06/20 05:21:45;;;;;;;7.00;6.50;;;20.00;99.90;;;;;;6088624;23;20455;-65
2023/06/20 05:24:12;;;;;;;7.00;6.50;;;20.20;99.90;;;;;;6081302;23;20484;-65
2023/06/20 05:26:39;;;;;;;6.37;5.87;;;20.20;99.90;;;;;;6052459;23;20463;-65
2023/06/20 05:29:07;;;;;;;7.47;6.80;;;20.40;99.90;;;;;;6076084;23;20451;-65
2023/06/20 05:31:34;;;;;;;7.57;6.97;;;20.40;99.90;;;;;;6077877;23;20434;-65
2023/06/20 05:34:03;;;;;;;7.90;7.20;;;20.50;99.90;;;;;;6091142;23;20432;-65
2023/06/20 05:36:31;;;;;;;7.47;6.87;;;20.60;99.90;;;;;;6093251;23;20480;-65
2023/06/20 05:38:58;;;;;;;7.07;6.47;;;20.60;99.90;;;;;;6096465;23;20943;-64
2023/06/20 05:41:25;;;;;;;6.60;6.00;;;20.60;99.90;;;;;;6093469;23;22930;-65
2023/06/20 05:43:53;;;;;;;6.00;5.60;;;20.70;99.90;;;;;;6091044;23;20480;-65
2023/06/20 05:46:20;;;;;;;5.80;5.40;;;20.80;99.90;;;;;;6054431;23;20558;-68
2023/06/20 05:48:48;;;;;;;5.50;5.00;;;21.10;99.90;;;;;;6076842;23;20453;-67
2023/06/20 05:51:16;;;;;;;5.40;4.90;;;21.00;99.90;;;;;;6080898;23;20437;-67
2023/06/20 05:53:43;;;;;;;5.07;4.77;;;21.10;99.90;;;;;;6072299;23;20485;-67
2023/06/20 05:56:11;;;;;;;5.33;5.00;;;21.20;99.90;;;;;;6066475;23;20454;-67
2023/06/20 05:58:38;;;;;;;5.40;4.90;;;21.40;99.90;;;;;;6078530;23;20835;-68
2023/06/20 06:01:05;;;;;;;5.57;5.17;;;21.50;99.90;;;;;;6073866;23;20465;-67
2023/06/20 06:03:34;;;;;;;5.23;4.80;;;21.60;99.90;;;;;;6041001;23;20482;-67
2023/06/20 06:06:03;;;;;;;5.67;5.07;;;21.70;99.90;;;;;;6038353;23;20458;-67
2023/06/20 06:08:33;;;;;;;5.20;4.80;;;21.80;99.90;;;;;;6057051;23;20512;-67
2023/06/20 06:11:00;;;;;;;4.93;4.63;;;21.90;99.90;;;;;;6075472;23;20505;-67
2023/06/20 06:13:28;;;;;;;4.93;4.53;;;22.00;99.90;;;;;;6057241;23;20442;-67
2023/06/20 06:15:55;;;;;;;5.07;4.60;;;22.10;99.90;;;;;;6058969;23;20511;-67
2023/06/20 06:18:22;;;;;;;5.20;4.80;;;22.20;99.90;;;;;;6064133;23;20486;-67
2023/06/20 06:20:49;;;;;;;5.60;5.10;;;22.30;99.90;;;;;;6077934;23;22110;-67
2023/06/20 06:23:16;;;;;;;5.40;4.63;;;22.30;99.90;;;;;;6074249;23;20479;-67
2023/06/20 06:25:46;;;;;;;6.23;4.90;;;22.30;99.90;;;;;;6082708;23;21783;-67
2023/06/20 06:28:13;;;;;;;5.57;5.17;;;22.40;99.90;;;;;;6065737;23;20471;-67
2023/06/20 06:30:40;;;;;;;5.50;5.10;;;22.40;99.90;;;;;;6082122;23;20431;-66
2023/06/20 06:33:08;;;;;;;5.60;5.10;;;22.40;99.90;;;;;;6091594;23;20474;-67
2023/06/20 06:35:35;;;;;;;5.07;4.67;;;22.40;99.90;;;;;;6107080;23;20452;-67
2023/06/20 06:38:03;;;;;;;5.53;5.10;;;22.50;99.90;;;;;;6098758;23;20434;-67
2023/06/20 06:40:31;;;;;;;5.80;5.30;;;22.60;99.90;;;;;;6091368;23;20449;-67
2023/06/20 06:43:00;;;;;;;5.50;5.00;;;22.70;99.90;;;;;;6103239;23;20465;-67
2023/06/20 06:45:27;;;;;;;6.27;5.60;;;22.80;99.90;;;;;;6096900;23;21050;-67
2023/06/20 06:47:54;;;;;;;7.53;5.23;;;22.80;99.90;;;;;;6068358;23;20491;-67
2023/06/20 06:50:21;;;;;;;5.43;4.73;;;22.90;99.90;;;;;;6069982;23;20968;-66
2023/06/20 06:52:48;;;;;;;5.33;4.63;;;23.00;99.90;;;;;;6082776;23;20439;-66
2023/06/20 06:55:15;;;;;;;5.07;4.63;;;23.00;99.90;;;;;;6073295;23;20430;-66
2023/06/20 06:57:43;;;;;;;5.23;4.83;;;23.10;99.90;;;;;;6091050;23;20438;-66
2023/06/20 07:00:14;;;;;;;5.77;5.33;;;23.20;99.90;;;;;;6085412;23;20438;-67
2023/06/20 07:02:41;;;;;;;5.27;4.77;;;23.20;99.90;;;;;;6085650;23;20467;-67
2023/06/20 07:05:09;;;;;;;6.63;5.73;;;23.30;99.90;;;;;;6066453;23;20492;-67
2023/06/20 07:07:36;;;;;;;6.37;5.77;;;23.40;99.90;;;;;;6101621;23;20435;-66
2023/06/20 07:10:03;;;;;;;4.80;4.40;;;23.60;99.90;;;;;;6099407;23;20438;-66
2023/06/20 07:12:31;;;;;;;10.23;4.87;;;23.60;99.90;;;;;;6072600;23;20479;-66
2023/06/20 07:14:57;;;;;;;5.33;4.93;;;23.70;99.90;;;;;;6057246;23;20463;-66
2023/06/20 07:17:26;;;;;;;5.60;5.20;;;23.80;99.90;;;;;;6073074;23;20521;-66
2023/06/20 07:19:54;;;;;;;5.30;4.80;;;23.90;99.90;;;;;;6082236;23;20448;-66
2023/06/20 07:22:21;;;;;;;5.67;5.17;;;24.00;99.90;;;;;;6078063;23;20473;-66
2023/06/20 07:24:49;;;;;;;4.93;4.50;;;24.10;99.90;;;;;;6094144;23;20506;-66
2023/06/20 07:27:17;;;;;;;5.53;5.03;;;24.20;99.90;;;;;;6086973;23;20488;-67
2023/06/20 07:29:43;;;;;;;5.47;5.07;;;24.30;99.90;;;;;;6087623;23;20522;-67
2023/06/20 07:32:10;;;;;;;5.90;5.40;;;24.40;99.90;;;;;;6058973;23;20818;-67
2023/06/20 07:34:39;;;;;;;5.60;5.10;;;24.50;99.90;;;;;;6087038;23;20969;-67
2023/06/20 07:37:07;;;;;;;5.83;5.43;;;24.60;99.90;;;;;;6071522;23;20998;-67
2023/06/20 07:39:34;;;;;;;5.33;4.60;;;24.80;99.90;;;;;;6085901;23;20495;-66
2023/06/20 07:42:01;;;;;;;6.00;5.50;;;25.00;99.90;;;;;;6093692;23;20431;-67
2023/06/20 07:44:28;;;;;;;5.60;5.10;;;25.20;99.90;;;;;;6085394;23;20918;-66
2023/06/20 07:46:55;;;;;;;5.40;4.90;;;25.30;99.90;;;;;;6107740;23;20450;-66
2023/06/20 07:49:22;;;;;;;5.90;5.30;;;25.40;99.90;;;;;;6095256;23;20521;-66
2023/06/20 07:51:50;;;;;;;6.93;5.20;;;25.50;99.90;;;;;;6092625;23;20517;-67
2023/06/20 07:54:17;;;;;;;5.63;5.23;;;25.70;99.90;;;;;;6086915;23;20434;-67
2023/06/20 07:56:44;;;;;;;5.90;4.93;;;25.90;99.90;;;;;;6062424;23;20546;-67
2023/06/20 07:59:12;;;;;;;5.47;5.07;;;26.10;99.90;;;;;;6088694;23;20434;-66
2023/06/20 08:01:39;;;;;;;5.80;5.30;;;26.20;99.90;;;;;;6090209;23;20663;-67
2023/06/20 08:04:06;;;;;;;6.00;5.60;;;26.40;99.90;;;;;;6089293;23;20471;-66
2023/06/20 08:06:33;;;;;;;5.87;5.37;;;26.60;99.90;;;;;;6089818;23;20458;-66
2023/06/20 08:09:01;;;;;;;5.40;4.90;;;26.70;99.90;;;;;;6093179;23;21147;-67
2023/06/20 08:11:29;;;;;;;5.40;5.00;;;26.80;99.90;;;;;;6101388;23;20462;-67
2023/06/20 08:13:56;;;;;;;5.47;5.07;;;27.00;99.90;;;;;;6066963;23;20466;-67
2023/06/20 08:16:23;;;;;;;5.70;5.20;;;27.20;99.90;;;;;;6072438;23;20529;-67
2023/06/20 08:18:51;;;;;;;5.93;5.37;;;27.20;99.90;;;;;;6065361;23;20951;-67
2023/06/20 08:21:18;;;;;;;5.43;4.93;;;27.30;99.90;;;;;;6080152;23;20453;-67
2023/06/20 08:23:45;;;;;;;5.83;5.30;;;27.40;99.90;;;;;;6056596;23;20467;-67
2023/06/20 08:26:14;;;;;;;5.80;5.30;;;27.50;99.90;;;;;;6071365;23;20537;-66
2023/06/20 08:28:41;;;;;;;5.63;5.20;;;27.60;99.90;;;;;;6099497;23;20441;-67
2023/06/20 08:31:08;;;;;;;5.97;5.37;;;27.50;99.90;;;;;;6088498;23;20460;-67
2023/06/20 08:33:35;;;;;;;6.10;5.60;;;27.50;99.90;;;;;;6078743;23;21173;-66
2023/06/20 08:36:02;;;;;;;5.97;5.47;;;27.40;99.90;;;;;;6090454;23;20799;-67
2023/06/20 08:38:29;;;;;;;5.97;5.47;;;27.30;99.90;;;;;;6090191;23;20434;-67
2023/06/20 08:40:57;;;;;;;6.53;5.93;;;27.30;99.90;;;;;;6096543;23;20430;-67
2023/06/20 08:43:28;;;;;;;5.60;4.93;;;27.50;99.90;;;;;;6077040;23;22019;-66
2023/06/20 08:45:56;;;;;;;6.80;6.10;;;27.50;99.90;;;;;;6093112;23;20458;-67
2023/06/20 08:48:24;;;;;;;7.83;6.10;;;27.70;99.90;;;;;;6091373;23;21217;-67
2023/06/20 08:50:51;;;;;;;6.23;5.73;;;28.00;99.90;;;;;;6097909;23;20457;-67
2023/06/20 08:53:19;;;;;;;6.47;5.97;;;28.10;99.90;;;;;;6085646;23;20800;-67
2023/06/20 08:55:48;;;;;;;6.67;6.03;;;28.20;99.90;;;;;;6070989;23;20757;-67
2023/06/20 08:58:15;;;;;;;5.60;5.20;;;28.40;99.90;;;;;;6088696;23;20781;-67
2023/06/20 09:00:45;;;;;;;6.03;5.53;;;28.60;99.90;;;;;;6087234;23;20457;-67
2023/06/20 09:03:13;;;;;;;5.97;5.47;;;28.80;99.90;;;;;;6081518;23;20557;-67
2023/06/20 09:05:41;;;;;;;6.60;6.03;;;28.90;99.90;;;;;;6058957;23;20455;-67
2023/06/20 09:08:11;;;;;;;6.43;5.93;;;29.10;99.90;;;;;;6056655;23;20463;-67
2023/06/20 09:10:39;;;;;;;6.20;5.73;;;29.20;99.90;;;;;;6068447;23;20974;-67
2023/06/20 09:13:08;;;;;;;5.80;5.30;;;29.20;99.90;;;;;;6080824;23;20443;-67
2023/06/20 09:15:36;;;;;;;6.27;5.70;;;29.40;99.90;;;;;;6057081;23;21081;-68
2023/06/20 09:18:06;;;;;;;6.60;6.00;;;29.50;99.90;;;;;;6086839;23;20500;-67
2023/06/20 09:20:34;;;;;;;6.80;6.20;;;29.60;99.90;;;;;;6074602;23;20477;-67
2023/06/20 09:23:01;;;;;;;6.03;5.60;;;29.60;99.90;;;;;;6100251;23;21254;-67
2023/06/20 09:25:30;;;;;;;6.53;6.00;;;29.60;99.90;;;;;;6100606;23;20442;-67
2023/06/20 09:27:57;;;;;;;6.43;5.90;;;29.80;99.90;;;;;;6078866;23;20434;-67
2023/06/20 09:30:29;;;;;;;6.33;5.63;;;30.20;99.90;;;;;;6088788;23;20432;-67
2023/06/20 09:33:03;;;;;;;6.77;6.23;;;29.70;99.90;;;;;;6083662;23;20930;-66
2023/06/20 09:35:32;;;;;;;6.80;6.30;;;29.50;99.90;;;;;;6069567;23;20450;-67
2023/06/20 09:38:03;;;;;;;6.00;5.40;;;29.50;99.90;;;;;;6090187;23;20444;-67
2023/06/20 09:40:31;;;;;;;5.87;5.47;;;29.60;99.90;;;;;;6089397;23;20511;-67
2023/06/20 09:42:58;;;;;;;6.10;5.50;;;29.70;99.90;;;;;;6095853;23;21037;-67
2023/06/20 09:45:25;;;;;;;6.40;5.67;;;29.90;99.90;;;;;;6077412;23;20536;-67
2023/06/20 09:47:55;;;;;;;6.90;6.20;;;30.10;99.90;;;;;;6096658;23;20478;-67
2023/06/20 09:50:25;;;;;;;6.27;5.70;;;30.50;99.90;;;;;;6045312;23;21455;-67
2023/06/20 09:52:59;;;;;;;6.33;5.93;;;30.80;99.90;;;;;;6054065;23;21011;-67
2023/06/20 09:55:27;;;;;;;6.30;5.73;;;31.10;99.90;;;;;;6064983;23;20457;-67
2023/06/20 09:57:58;;;;;;;8.13;6.10;;;31.20;99.90;;;;;;6096615;23;20429;-66
2023/06/20 10:00:27;;;;;;;6.37;5.87;;;31.10;99.70;;;;;;6093908;23;20425;-67
2023/06/20 10:02:55;;;;;;;6.60;6.10;;;31.00;99.90;;;;;;6091320;23;20459;-75
2023/06/20 10:05:24;;;;;;;6.80;6.30;;;31.30;99.30;;;;;;6060136;23;21818;-68
2023/06/20 10:07:57;;;;;;;6.50;6.00;;;31.70;98.90;;;;;;6083444;23;20426;-68
2023/06/20 10:10:25;;;;;;;6.50;6.00;;;32.00;98.80;;;;;;6058000;23;20956;-68
2023/06/20 10:12:52;;;;;;;6.10;5.67;;;31.80;97.40;;;;;;6073218;23;20433;-68
2023/06/20 10:15:19;;;;;;;6.17;5.67;;;31.50;96.70;;;;;;6084849;23;21341;-68
2023/06/20 10:17:47;;;;;;;6.17;5.67;;;31.50;96.70;;;;;;6088426;23;20438;-66
2023/06/20 10:20:28;;;;;;;6.17;5.67;;;31.70;96.90;;;;;;6086715;23;20532;-67
2023/06/20 10:22:59;;;;;;;6.17;5.67;;;32.00;96.40;;;;;;6072457;23;20438;-67
2023/06/20 10:25:27;;;;;;;6.07;5.47;;;32.20;96.00;;;;;;6076612;23;20468;-67
2023/06/20 10:27:57;;;;;;;5.60;5.20;;;32.10;96.10;;;;;;6079426;23;20969;-67
2023/06/20 10:30:58;;;;;;;6.20;5.70;;;32.20;96.10;;;;;;6065489;23;20442;-67
2023/06/20 10:33:26;;;;;;;6.33;5.83;;;32.50;93.70;;;;;;6066851;23;20891;-67
2023/06/20 10:35:55;;;;;;;5.73;5.33;;;32.70;93.10;;;;;;6095428;23;20446;-67
2023/06/20 10:38:24;;;;;;;6.67;6.17;;;32.90;92.80;;;;;;6080395;23;20513;-67
2023/06/20 10:41:10;;;;;;;5.53;5.13;;;33.30;92.70;;;;;;6075819;23;20882;-67
2023/06/20 10:43:52;;;;;;;5.33;4.83;;;33.60;90.30;;;;;;6085716;23;21157;-67
2023/06/20 10:46:21;;;;;;;5.93;5.50;;;33.70;89.20;;;;;;6098728;23;20462;-67
2023/06/20 10:48:48;;;;;;;5.93;5.53;;;33.70;90.20;;;;;;6103646;23;20517;-68
2023/06/20 10:51:15;;;;;;;5.20;4.80;;;33.80;90.30;;;;;;6080504;23;20962;-69
2023/06/20 10:53:43;;;;;;;5.47;5.07;;;34.00;89.90;;;;;;6083794;23;20518;-67
2023/06/20 10:56:23;;;;;;;5.40;5.00;;;33.90;87.70;;;;;;6086685;23;21126;-67
2023/06/20 10:58:50;;;;;;;6.23;4.77;;;34.00;86.20;;;;;;6098385;23;20852;-67
2023/06/20 11:01:18;;;;;;;5.73;5.30;;;34.40;86.70;;;;;;6067294;23;20531;-67
2023/06/20 11:03:46;;;;;;;5.00;4.60;;;34.70;83.10;;;;;;6068427;23;20461;-67
2023/06/20 11:06:15;;;;;;;5.53;4.83;;;35.00;82.20;;;;;;6083374;23;20528;-67
2023/06/20 11:08:45;;;;;;;5.47;4.97;;;35.30;78.80;;;;;;6092425;23;20430;-67
2023/06/20 11:11:12;;;;;;;5.20;4.80;;;35.60;79.50;;;;;;6100012;23;20439;-67
2023/06/20 11:13:40;;;;;;;5.80;5.30;;;35.80;77.70;;;;;;6084259;23;20922;-67
2023/06/20 11:16:07;;;;;;;5.63;5.13;;;35.60;73.20;;;;;;6090683;23;20467;-67
2023/06/20 11:18:35;;;;;;;6.77;5.43;;;34.90;74.00;;;;;;6089484;23;20442;-67
2023/06/20 11:21:04;;;;;;;6.10;5.50;;;34.40;74.50;;;;;;6078898;23;20437;-68
2023/06/20 11:23:35;;;;;;;5.80;5.30;;;34.30;74.60;;;;;;6094791;23;20461;-67
2023/06/20 11:26:04;;;;;;;5.33;4.87;;;34.00;74.30;;;;;;6096853;23;20460;-67
2023/06/20 11:28:31;;;;;;;4.90;4.60;;;34.20;75.60;;;;;;6077760;23;20471;-67
2023/06/20 11:31:10;;;;;;;5.87;5.37;;;34.10;75.10;;;;;;6067536;23;20784;-67
2023/06/20 11:33:37;;;;;;;5.80;5.30;;;34.10;77.10;;;;;;6081461;23;20431;-67
2023/06/20 11:36:06;;;;;;;5.97;5.57;;;34.40;75.00;;;;;;6092358;23;20477;-67
2023/06/20 11:38:36;;;;;;;6.93;5.40;;;34.60;74.70;;;;;;6090382;23;20427;-67
2023/06/20 11:41:07;;;;;;;6.10;5.40;;;34.60;73.10;;;;;;6089775;23;20469;-68
2023/06/20 11:43:37;;;;;;;5.53;5.13;;;34.50;73.40;;;;;;6093677;23;20466;-69
2023/06/20 11:46:06;;;;;;;5.43;5.00;;;34.80;74.30;;;;;;6098313;23;20457;-69
2023/06/20 11:48:33;;;;;;;5.43;5.00;;;35.30;74.70;;;;;;6088325;23;20431;-69
2023/06/20 11:51:01;;;;;;;5.33;4.93;;;35.80;72.20;;;;;;6091545;23;20453;-69
2023/06/20 11:53:31;;;;;;;5.00;4.60;;;36.10;71.50;;;;;;6081202;23;20454;-68
2023/06/20 11:55:59;;;;;;;5.10;4.80;;;36.40;68.90;;;;;;6093459;23;20459;-68
2023/06/20 11:58:27;;;;;;;5.80;5.30;;;36.80;69.80;;;;;;6088927;23;20458;-68
2023/06/20 12:01:04;;;;;;;5.37;4.87;;;37.00;67.40;;;;;;6102726;23;21164;-68
2023/06/20 12:03:31;;;;;;;5.77;5.23;;;37.20;66.40;;;;;;6095337;23;20511;-69
2023/06/20 12:05:59;;;;;;;5.17;4.77;;;37.10;63.90;;;;;;6082739;23;20530;-69
2023/06/20 12:08:31;;;;;;;5.00;4.50;;;36.80;65.20;;;;;;6097992;23;20454;-69
2023/06/20 12:11:01;;;;;;;5.50;5.03;;;36.90;65.50;;;;;;6105942;23;20441;-69
2023/06/20 12:13:30;;;;;;;5.43;4.97;;;36.90;63.50;;;;;;6097798;23;20429;-70
2023/06/20 12:15:57;;;;;;;5.00;4.60;;;36.60;61.60;;;;;;6086929;23;20799;-69
2023/06/20 12:18:25;;;;;;;7.27;5.37;;;36.40;62.50;;;;;;6063559;23;20457;-69
2023/06/20 12:20:52;;;;;;;7.23;4.90;;;36.50;61.60;;;;;;6053990;23;20514;-68
2023/06/20 12:23:19;;;;;;;5.77;5.30;;;36.50;61.10;;;;;;6065375;23;20526;-68
2023/06/20 12:25:47;;;;;;;5.87;5.37;;;36.50;61.50;;;;;;6059256;23;20458;-68
2023/06/20 12:28:14;;;;;;;5.20;4.80;;;36.60;61.50;;;;;;6069940;23;20446;-68
2023/06/20 12:30:43;;;;;;;5.80;5.10;;;36.70;60.80;;;;;;6091049;23;20436;-69
2023/06/20 12:33:10;;;;;;;4.93;4.53;;;36.60;61.30;;;;;;6086439;23;20437;-68
2023/06/20 12:35:38;;;;;;;6.10;5.27;;;36.70;61.70;;;;;;6070594;23;20461;-68
2023/06/20 12:38:05;;;;;;;5.87;5.40;;;36.90;62.30;;;;;;6062526;23;20438;-68
2023/06/20 12:40:33;;;;;;;5.40;4.90;;;37.20;60.10;;;;;;6072758;23;21110;-70
2023/06/20 12:43:00;;;;;;;6.17;5.00;;;37.40;59.60;;;;;;6091426;23;20474;-67
2023/06/20 12:45:27;;;;;;;6.57;5.83;;;37.50;59.70;;;;;;6082990;23;20512;-69
2023/06/20 12:47:55;;;;;;;6.60;5.10;;;37.30;58.40;;;;;;6082143;23;20436;-70
2023/06/20 12:50:22;;;;;;;6.40;5.83;;;37.40;58.40;;;;;;6068891;23;20953;-67
2023/06/20 12:52:49;;;;;;;6.20;5.60;;;37.70;58.00;;;;;;6076005;23;20496;-67